Time;durP1;ratioP1;P1;durP2;ratioP2;P2;SDS_P1;SDS_P2;PMS_P1;PMS_P2;Temp;Humidity;BMP_temperature;BMP_pressure;BME280_temperature;BME280_humidity;BME280_pressure;Samples;Min_cycle;Max_cycle;Signal;HPM_P1;HPM_P2
2023/06/15 00:01:29;;;;;;;13.77;10.27;;;;;;;-141.97;70.08;47599.81;5012315;28;20197;-79
2023/06/15 00:03:54;;;;;;;14.17;9.63;;;;;;;-141.97;70.50;47557.53;5012555;28;20162;-81
2023/06/15 00:06:20;;;;;;;11.63;9.50;;;;;;;-141.97;71.19;47597.88;5012535;28;20643;-80
2023/06/15 00:08:45;;;;;;;13.27;9.37;;;;;;;-141.97;71.68;47622.88;4972975;28;1119546;-79
2023/06/15 00:11:10;;;;;;;13.53;9.70;;;;;;;-141.97;72.22;47611.34;5012118;28;20190;-80
2023/06/15 00:13:36;;;;;;;11.27;9.73;;;;;;;-141.97;72.50;47549.84;5013428;28;20159;-80
2023/06/15 00:16:01;;;;;;;14.30;10.00;;;;;;;-141.97;72.73;47561.38;5013857;28;20186;-80
2023/06/15 00:18:27;;;;;;;15.17;9.93;;;;;;;-141.97;73.09;47521.00;5013482;28;20186;-80
2023/06/15 00:20:55;;;;;;;11.90;9.83;;;;;;;-141.97;73.00;47799.72;5013336;28;20166;-80
2023/06/15 00:23:26;;;;;;;12.13;9.73;;;;;;;-141.97;73.07;47761.25;5011971;28;20175;-80
2023/06/15 00:25:55;;;;;;;11.40;9.23;;;;;;;-141.97;73.09;47640.16;5013475;28;20246;-79
2023/06/15 00:28:20;;;;;;;12.47;9.77;;;;;;;-141.97;72.99;47603.66;5012827;28;20603;-79
2023/06/15 00:30:46;;;;;;;15.20;9.90;;;;;;;-141.97;73.74;47492.16;5013241;28;20209;-80
2023/06/15 00:33:11;;;;;;;14.20;10.27;;;;;;;-141.97;74.38;47607.50;5013188;28;20198;-81
2023/06/15 00:35:37;;;;;;;15.50;10.20;;;;;;;-141.97;74.94;47599.81;5012740;28;20179;-81
2023/06/15 00:38:03;;;;;;;13.93;9.83;;;;;;;-141.97;75.27;47620.94;5018410;28;20547;-81
2023/06/15 00:40:28;;;;;;;13.47;9.77;;;;;;;-141.97;75.33;47582.50;5013119;28;20631;-80
2023/06/15 00:42:53;;;;;;;13.07;9.87;;;;;;;-141.97;75.47;47776.63;5011045;28;20244;-80
2023/06/15 00:45:19;;;;;;;14.60;9.90;;;;;;;-141.97;75.42;47620.94;5012825;28;20249;-80
2023/06/15 00:47:46;;;;;;;15.70;10.50;;;;;;;-141.97;75.64;47521.00;5013201;28;20221;-79
2023/06/15 00:50:18;;;;;;;12.23;9.73;;;;;;;-141.97;75.62;47620.94;5012613;28;20201;-79
2023/06/15 00:52:45;;;;;;;15.07;9.80;;;;;;;-141.97;75.52;47642.09;5012061;28;20679;-79
2023/06/15 00:55:13;;;;;;;10.40;9.20;;;;;;;-141.97;75.13;47615.19;5012253;28;20174;-78
2023/06/15 00:57:44;;;;;;;12.57;9.60;;;;;;;-141.97;74.95;47807.41;5011441;28;20170;-80
2023/06/15 01:00:17;;;;;;;14.77;9.40;;;;;;;-141.97;74.72;47592.13;5012076;28;20162;-80
2023/06/15 01:02:44;;;;;;;14.47;8.70;;;;;;;-141.97;74.52;47736.28;5011851;28;20244;-79
2023/06/15 01:05:10;;;;;;;10.97;9.20;;;;;;;-141.97;74.55;47619.03;5012114;28;20171;-80
2023/06/15 01:07:40;;;;;;;10.53;9.00;;;;;;;-141.97;74.86;47592.13;5008437;28;20202;-79
2023/06/15 01:10:09;;;;;;;10.03;8.10;;;;;;;-141.97;74.69;47553.69;5011961;28;20185;-81
2023/06/15 01:12:40;;;;;;;10.60;8.37;;;;;;;-141.97;74.78;47628.63;5010088;28;20163;-81
2023/06/15 01:15:09;;;;;;;12.87;8.93;;;;;;;-141.97;75.70;47628.63;5012856;28;20189;-81
2023/06/15 01:17:44;;;;;;;10.10;9.03;;;;;;;-141.97;75.79;47599.81;5011636;28;20174;-81
2023/06/15 01:20:17;;;;;;;12.90;9.93;;;;;;;-141.97;76.51;47647.84;5012131;28;20177;-81
2023/06/15 01:22:59;;;;;;;14.00;9.93;;;;;;;-141.97;77.47;47615.19;5012362;28;20737;-81
2023/06/15 01:25:42;;;;;;;14.27;10.03;;;;;;;-141.97;77.54;47615.19;5012539;28;20642;-81
2023/06/15 01:28:10;;;;;;;14.40;10.40;;;;;;;-141.97;77.81;47624.78;5027523;28;20552;-81
2023/06/15 01:30:42;;;;;;;17.90;11.33;;;;;;;-141.97;77.78;47607.50;5012467;28;20597;-80
2023/06/15 01:33:09;;;;;;;13.90;10.60;;;;;;;-141.97;77.51;47609.41;5011012;28;20187;-81
2023/06/15 01:35:35;;;;;;;13.70;10.23;;;;;;;-141.97;77.80;47655.53;5012221;28;20173;-81
2023/06/15 01:38:01;;;;;;;14.90;10.50;;;;;;;-141.97;77.87;47620.94;5012303;28;20558;-82
2023/06/15 01:40:28;;;;;;;15.20;11.10;;;;;;;-141.97;78.05;47501.78;5010530;28;20639;-81
2023/06/15 01:42:55;;;;;;;14.20;10.40;;;;;;;-141.97;77.96;47547.91;5012504;28;20667;-81
2023/06/15 01:45:22;;;;;;;11.60;9.67;;;;;;;-141.97;77.60;47578.66;5012447;28;20167;-81
2023/06/15 01:47:49;;;;;;;14.83;10.33;;;;;;;-141.97;77.26;47611.34;5012452;28;20656;-80
2023/06/15 01:50:16;;;;;;;13.70;9.57;;;;;;;-141.97;77.53;47642.09;5014367;28;20182;-80
2023/06/15 01:52:41;;;;;;;13.23;10.20;;;;;;;-141.97;77.27;47563.28;5016204;28;20174;-80
2023/06/15 01:55:07;;;;;;;14.03;10.37;;;;;;;-141.97;77.23;47549.84;5015835;28;20167;-81
2023/06/15 01:57:39;;;;;;;14.60;9.47;;;;;;;-141.97;77.41;47615.19;5016025;28;20178;-81
2023/06/15 02:00:07;;;;;;;14.97;10.20;;;;;;;-141.97;77.08;47611.34;5015392;28;20618;-81
2023/06/15 02:02:33;;;;;;;14.80;9.57;;;;;;;-141.97;77.25;47647.84;5014911;28;20194;-80
2023/06/15 02:05:00;;;;;;;13.70;9.37;;;;;;;-141.97;77.18;47626.72;5015860;28;20680;-80
2023/06/15 02:07:25;;;;;;;12.77;9.23;;;;;;;-141.97;76.81;47488.31;5015914;28;20155;-81
2023/06/15 02:09:52;;;;;;;14.93;9.73;;;;;;;-141.97;77.18;47615.19;5014247;28;20661;-81
2023/06/15 02:12:17;;;;;;;15.80;10.10;;;;;;;-141.97;76.59;47832.38;5015711;28;20635;-81
2023/06/15 02:14:43;;;;;;;13.77;10.67;;;;;;;-141.97;76.40;47509.47;5015861;28;20165;-81
2023/06/15 02:17:09;;;;;;;14.83;10.47;;;;;;;-141.97;76.24;47620.94;5015566;28;20167;-81
2023/06/15 02:19:35;;;;;;;16.33;9.93;;;;;;;-141.97;76.07;47544.06;5010928;28;20556;-80
2023/06/15 02:22:00;;;;;;;17.80;11.20;;;;;;;-141.97;75.93;47703.59;4995879;28;20190;-80
2023/06/15 02:24:26;;;;;;;13.53;9.60;;;;;;;-141.97;75.84;47619.03;4995916;28;20159;-82
2023/06/15 02:26:51;;;;;;;11.60;8.57;;;;;;;-141.97;75.93;47615.19;4996265;28;20170;-81
2023/06/15 02:29:17;;;;;;;13.20;8.80;;;;;;;-141.97;76.28;47792.03;4995846;28;20171;-82
2023/06/15 02:31:42;;;;;;;12.67;8.70;;;;;;;-141.97;75.75;47484.47;4995709;28;20246;-82
2023/06/15 02:34:07;;;;;;;13.07;8.80;;;;;;;-141.97;75.72;47597.88;4999502;28;20623;-82
2023/06/15 02:36:34;;;;;;;13.00;9.30;;;;;;;-141.97;75.48;47607.50;5010795;28;20271;-81
2023/06/15 02:39:01;;;;;;;11.27;8.33;;;;;;;-141.97;75.27;47642.09;4996068;28;20163;-81
2023/06/15 02:41:26;;;;;;;13.00;8.90;;;;;;;-141.97;74.76;47638.25;4995809;28;20188;-81
2023/06/15 02:43:52;;;;;;;13.07;8.87;;;;;;;-141.97;74.53;47818.94;4993895;28;20561;-81
2023/06/15 02:46:18;;;;;;;13.70;9.73;;;;;;;-141.97;75.05;47665.16;4996389;28;20172;-82
2023/06/15 02:48:44;;;;;;;14.10;9.20;;;;;;;-141.97;75.13;47617.09;4995334;28;20170;-82
2023/06/15 02:51:10;;;;;;;12.73;8.50;;;;;;;-141.97;75.05;47826.63;4995678;28;20548;-81
2023/06/15 02:53:35;;;;;;;13.07;9.17;;;;;;;-141.97;74.92;47622.88;4998826;28;20155;-80
2023/06/15 02:56:02;;;;;;;13.60;10.23;;;;;;;-141.97;74.69;47642.09;5000197;28;20167;-81
2023/06/15 02:58:32;;;;;;;12.30;9.30;;;;;;;-141.97;74.88;47622.88;5007361;28;20647;-81
2023/06/15 03:01:00;;;;;;;15.70;9.10;;;;;;;-141.97;74.88;47653.63;5014298;28;20703;-80
2023/06/15 03:03:29;;;;;;;12.27;8.30;;;;;;;-141.97;74.55;47647.84;5013539;28;20618;-80
2023/06/15 03:05:55;;;;;;;11.77;8.60;;;;;;;-141.97;75.11;47657.47;5014537;28;20170;-80
2023/06/15 03:08:23;;;;;;;13.10;8.53;;;;;;;-141.97;75.07;47634.41;5014413;28;20214;-80
2023/06/15 03:10:51;;;;;;;13.40;8.73;;;;;;;-141.97;74.40;47640.16;5015059;28;20173;-81
2023/06/15 03:13:17;;;;;;;15.37;9.47;;;;;;;-141.97;74.08;47613.25;5014387;28;20246;-81
2023/06/15 03:15:42;;;;;;;12.87;9.10;;;;;;;-141.97;73.81;47619.03;5014734;28;20222;-81
2023/06/15 03:18:08;;;;;;;12.80;9.03;;;;;;;-141.97;72.87;47749.72;5014474;28;20166;-78
2023/06/15 03:20:33;;;;;;;13.37;9.63;;;;;;;-141.97;72.66;47784.34;5014188;28;20182;-79
2023/06/15 03:23:00;;;;;;;14.40;9.87;;;;;;;-141.97;72.45;47615.19;5014464;28;20256;-81
2023/06/15 03:25:26;;;;;;;13.17;9.43;;;;;;;-141.97;72.64;47626.72;5014236;28;20658;-80
2023/06/15 03:27:53;;;;;;;12.87;9.40;;;;;;;-141.97;72.99;47586.34;5013814;28;20167;-80
2023/06/15 03:30:19;;;;;;;14.67;9.93;;;;;;;-141.97;73.05;47815.09;5010114;28;20193;-79
2023/06/15 03:32:47;;;;;;;13.03;9.07;;;;;;;-141.97;73.17;47640.16;5014312;28;20171;-79
2023/06/15 03:35:12;;;;;;;14.53;9.17;;;;;;;-141.97;73.47;47586.34;5014315;28;20202;-79
2023/06/15 03:37:38;;;;;;;17.17;10.20;;;;;;;-141.97;72.54;47603.66;5013847;28;20170;-80
2023/06/15 03:40:05;;;;;;;15.23;9.67;;;;;;;-141.97;72.37;47626.72;5014080;28;20517;-79
2023/06/15 03:42:31;;;;;;;14.83;9.23;;;;;;;-141.97;72.46;47611.34;5013612;28;20183;-78
2023/06/15 03:44:56;;;;;;;12.13;8.97;;;;;;;-141.97;72.38;47720.91;5013280;28;20183;-78
2023/06/15 03:47:21;;;;;;;14.07;8.90;;;;;;;-141.97;72.51;47638.25;5013459;28;20162;-79
2023/06/15 03:49:47;;;;;;;16.57;8.80;;;;;;;-141.97;71.91;47607.50;5013548;28;20196;-80
2023/06/15 03:52:12;;;;;;;13.70;9.50;;;;;;;-141.97;72.06;47624.78;5028335;28;20562;-79
2023/06/15 03:54:38;;;;;;;12.90;9.00;;;;;;;-141.97;72.11;47672.84;5013260;28;20171;-79
2023/06/15 03:57:03;;;;;;;13.10;9.30;;;;;;;-141.97;71.77;47632.47;5013612;28;20169;-79
2023/06/15 03:59:28;;;;;;;11.77;8.77;;;;;;;-141.97;70.69;47619.03;5013264;28;20163;-80
2023/06/15 04:01:54;;;;;;;14.37;9.23;;;;;;;-141.97;70.10;47576.75;5013399;28;20218;-81
2023/06/15 04:04:19;;;;;;;14.57;9.37;;;;;;;-141.97;69.80;47620.94;5013477;28;20174;-79
2023/06/15 04:06:47;;;;;;;12.97;8.50;;;;;;;-141.97;69.14;47565.22;5013726;28;20199;-79
2023/06/15 04:09:14;;;;;;;15.27;9.13;;;;;;;-141.97;69.39;47594.03;5013006;28;20571;-79
2023/06/15 04:11:40;;;;;;;10.37;8.23;;;;;;;-141.97;69.43;47613.25;5012217;28;20158;-80
2023/06/15 04:14:05;;;;;;;13.50;8.50;;;;;;;-141.97;68.89;47626.72;5012597;28;20258;-80
2023/06/15 04:16:31;;;;;;;10.23;8.57;;;;;;;-141.97;68.42;47757.41;5013614;28;20254;-79
2023/06/15 04:18:57;;;;;;;13.10;7.93;;;;;;;-141.97;68.34;47634.41;5013040;28;20678;-79
2023/06/15 04:21:22;;;;;;;14.57;8.43;;;;;;;-141.97;67.74;47630.56;5011784;28;20222;-79
2023/06/15 04:23:48;;;;;;;10.87;8.30;;;;;;;-141.97;66.91;47638.25;5013228;28;20206;-79
2023/06/15 04:26:13;;;;;;;14.03;8.43;;;;;;;-141.97;66.26;47609.41;5013372;28;20167;-81
2023/06/15 04:28:39;;;;;;;14.70;8.43;;;;;;;-141.97;66.14;47630.56;4998567;28;20762;-79
2023/06/15 04:31:10;;;;;;;13.03;8.53;;;;;;;-141.97;65.94;47586.34;5030413;28;20177;-80
2023/06/15 04:33:36;;;;;;;12.90;8.33;;;;;;;-141.97;65.67;47594.03;5032377;28;20162;-80
2023/06/15 04:36:03;;;;;;;10.83;8.83;;;;;;;-141.97;65.90;47609.41;5031584;28;20182;-78
2023/06/15 04:38:29;;;;;;;14.33;8.93;;;;;;;-141.97;65.53;47553.69;5030493;28;20170;-79
2023/06/15 04:40:56;;;;;;;12.43;8.30;;;;;;;-141.97;65.73;47611.34;5031436;28;20336;-79
2023/06/15 04:43:21;;;;;;;12.47;8.33;;;;;;;-141.97;65.47;47645.94;5031703;28;20162;-78
2023/06/15 04:45:47;;;;;;;14.70;9.50;;;;;;;-141.97;65.06;47772.78;5030323;28;20212;-79
2023/06/15 04:48:12;;;;;;;13.77;9.30;;;;;;;-141.97;64.94;47659.38;5031724;28;20261;-79
2023/06/15 04:50:38;;;;;;;15.17;9.00;;;;;;;-141.97;64.21;47561.38;5031350;28;20236;-79
2023/06/15 04:53:03;;;;;;;17.57;9.00;;;;;;;-141.97;64.40;47642.09;5032128;28;20190;-80
2023/06/15 04:55:28;;;;;;;13.47;9.10;;;;;;;-141.97;63.58;47611.34;5047067;28;20173;-80
2023/06/15 04:57:54;;;;;;;13.97;8.57;;;;;;;-141.97;63.00;47638.25;5031421;28;20177;-80
2023/06/15 05:00:20;;;;;;;10.50;9.10;;;;;;;-141.97;63.54;47626.72;5031096;28;20703;-79
2023/06/15 05:02:45;;;;;;;13.13;9.40;;;;;;;-141.97;62.52;47584.44;5031653;28;20208;-79
2023/06/15 05:05:12;;;;;;;13.27;9.20;;;;;;;-141.97;63.05;47742.03;5031342;28;20161;-80
2023/06/15 05:07:37;;;;;;;13.57;8.90;;;;;;;-141.97;62.37;47619.03;5031366;28;20178;-78
2023/06/15 05:10:03;;;;;;;11.40;8.83;;;;;;;-141.97;61.60;47619.03;5031534;28;20204;-79
2023/06/15 05:12:28;;;;;;;14.80;8.50;;;;;;;-141.97;61.03;47547.91;5029974;28;20232;-79
2023/06/15 05:14:54;;;;;;;13.43;8.83;;;;;;;-141.97;60.43;47599.81;5030352;28;20166;-80
2023/06/15 05:17:20;;;;;;;14.20;9.50;;;;;;;-141.97;60.49;47607.50;5031977;28;20683;-79
2023/06/15 05:19:45;;;;;;;12.00;9.30;;;;;;;-141.97;60.79;47513.31;5031181;28;20212;-80
2023/06/15 05:22:11;;;;;;;11.87;9.00;;;;;;;-141.97;59.94;47580.59;5031399;28;20194;-78
2023/06/15 05:24:36;;;;;;;19.97;9.07;;;;;;;-141.97;59.80;47599.81;5031495;28;20248;-80
2023/06/15 05:27:04;;;;;;;12.57;9.80;;;;;;;-141.97;59.46;47519.06;5031094;28;20162;-80
2023/06/15 05:29:30;;;;;;;14.37;9.40;;;;;;;-141.97;60.18;47609.41;5029446;28;20170;-78
2023/06/15 05:31:56;;;;;;;13.33;9.53;;;;;;;-141.97;59.83;47622.88;5030976;28;20249;-80
2023/06/15 05:34:21;;;;;;;13.13;9.30;;;;;;;-141.97;59.78;47590.19;5031539;28;20173;-80
2023/06/15 05:36:47;;;;;;;15.37;9.80;;;;;;;-141.97;59.49;47672.84;5032157;28;20162;-80
2023/06/15 05:39:12;;;;;;;15.53;10.00;;;;;;;-141.97;59.07;47603.66;5031294;28;20158;-79
2023/06/15 05:41:38;;;;;;;12.20;9.50;;;;;;;-141.97;59.57;47480.63;5030102;28;20692;-79
2023/06/15 05:44:04;;;;;;;13.77;9.43;;;;;;;-141.97;58.85;47601.72;5030754;28;20257;-80
2023/06/15 05:46:29;;;;;;;14.27;9.10;;;;;;;-141.97;57.71;47488.31;5046531;28;20205;-81
2023/06/15 05:48:55;;;;;;;14.70;9.87;;;;;;;-141.97;56.45;47557.53;5031712;28;20158;-80
2023/06/15 05:51:20;;;;;;;12.97;9.43;;;;;;;-141.97;55.99;47565.22;5029962;28;20182;-80
2023/06/15 05:53:45;;;;;;;12.10;9.23;;;;;;;-141.97;55.66;47561.38;5031437;28;20181;-79
2023/06/15 05:56:11;;;;;;;12.37;9.60;;;;;;;-141.97;56.16;47595.97;5031500;28;20600;-80
2023/06/15 05:58:37;;;;;;;14.20;9.87;;;;;;;-141.97;56.44;47763.19;5031077;28;20166;-80
2023/06/15 06:01:03;;;;;;;11.83;9.40;;;;;;;-141.97;57.55;47547.91;5031309;28;20162;-81
2023/06/15 06:03:28;;;;;;;15.53;9.37;;;;;;;-141.97;57.25;47603.66;5029128;28;20559;-82
2023/06/15 06:05:54;;;;;;;12.80;9.10;;;;;;;-141.97;56.39;47484.47;5031001;28;20549;-81
2023/06/15 06:08:21;;;;;;;11.67;8.87;;;;;;;-141.97;55.78;47817.00;5031147;28;20698;-80
2023/06/15 06:10:46;;;;;;;10.03;9.00;;;;;;;-141.97;55.90;47515.22;5031366;28;20171;-81
2023/06/15 06:13:12;;;;;;;11.63;8.90;;;;;;;-141.97;56.05;47503.69;5030608;28;20170;-80
2023/06/15 06:15:37;;;;;;;11.47;9.37;;;;;;;-141.97;55.49;47557.53;5030621;28;20184;-79
2023/06/15 06:18:04;;;;;;;10.80;8.87;;;;;;;-141.97;54.90;47546.00;5030931;28;20181;-81
2023/06/15 06:20:31;;;;;;;11.83;9.00;;;;;;;-141.97;53.64;47549.84;5031041;28;20169;-78
2023/06/15 06:22:56;;;;;;;11.52;9.82;;;;;;;-141.97;54.38;47584.44;5029519;28;20681;-80
2023/06/15 06:25:22;;;;;;;13.30;9.33;;;;;;;-141.97;55.33;47670.91;5030370;28;20166;-80
2023/06/15 06:27:47;;;;;;;12.30;9.83;;;;;;;-141.97;55.87;47582.50;5030081;28;20166;-80
2023/06/15 06:30:13;;;;;;;14.50;9.53;;;;;;;-141.97;54.97;47519.06;5020996;28;20245;-80
2023/06/15 06:32:38;;;;;;;13.50;10.00;;;;;;;-141.97;54.95;47555.59;5029340;28;20170;-80
2023/06/15 06:35:04;;;;;;;13.40;9.53;;;;;;;-141.97;54.22;47542.16;5029013;28;20222;-79
2023/06/15 06:37:30;;;;;;;12.23;9.60;;;;;;;-141.97;54.74;47553.69;5032580;28;20168;-79
2023/06/15 06:39:55;;;;;;;13.82;9.80;;;;;;;-141.97;54.86;47505.63;5022787;28;20186;-79
2023/06/15 06:42:20;;;;;;;14.03;9.83;;;;;;;-141.97;54.97;47496.00;5025803;28;20237;-79
2023/06/15 06:44:46;;;;;;;12.77;9.83;;;;;;;-141.97;53.72;47626.72;5032919;28;20171;-79
2023/06/15 06:47:11;;;;;;;13.70;9.93;;;;;;;-141.97;52.60;47576.75;5029686;28;20179;-81
2023/06/15 06:49:37;;;;;;;13.13;9.77;;;;;;;-141.97;53.01;47551.75;5033338;28;20206;-79
2023/06/15 06:52:03;;;;;;;13.18;10.32;;;;;;;-141.97;53.44;47751.66;5048527;28;20190;-81
2023/06/15 06:54:28;;;;;;;14.00;9.60;;;;;;;-141.97;52.46;47542.16;5033950;28;20234;-82
2023/06/15 06:56:54;;;;;;;14.43;10.70;;;;;;;-141.97;52.17;47730.50;5034207;28;20164;-82
2023/06/15 06:59:19;;;;;;;17.73;11.10;;;;;;;-141.97;52.69;47546.00;5024419;28;20178;-81
2023/06/15 07:01:45;;;;;;;13.75;10.75;;;;;;;-141.97;53.52;47536.38;5014880;28;20232;-81
2023/06/15 07:04:10;;;;;;;14.32;11.43;;;;;;;-141.97;53.27;47546.00;5014361;28;20174;-81
2023/06/15 07:06:35;;;;;;;12.95;11.35;;;;;;;-141.97;53.05;47546.00;5014480;28;20193;-81
2023/06/15 07:09:01;;;;;;;15.48;11.13;;;;;;;-141.97;52.39;47557.53;5029360;28;20250;-81
2023/06/15 07:11:27;;;;;;;12.95;10.90;;;;;;;-141.97;52.84;47503.69;5032283;28;20550;-81
2023/06/15 07:13:53;;;;;;;13.18;10.38;;;;;;;-141.97;52.37;47515.22;5033060;28;20175;-82
2023/06/15 07:16:19;;;;;;;15.18;10.52;;;;;;;-141.97;52.73;47449.88;5033846;28;20253;-82
2023/06/15 07:18:44;;;;;;;11.77;10.52;;;;;;;-141.97;51.97;47678.63;5033902;28;20193;-83
2023/06/15 07:21:10;;;;;;;15.98;10.68;;;;;;;-141.97;52.74;47426.81;5033981;28;20610;-83
2023/06/15 07:23:35;;;;;;;12.90;10.32;;;;;;;-141.97;51.98;47519.06;5032356;28;20170;-82
2023/06/15 07:26:01;;;;;;;13.00;9.93;;;;;;;-141.97;50.97;47488.31;5033967;28;20169;-83
2023/06/15 07:28:26;;;;;;;11.48;10.15;;;;;;;-141.97;50.50;47561.38;5023873;28;20173;-82
2023/06/15 07:30:51;;;;;;;11.60;10.38;;;;;;;-141.97;49.92;47546.00;5032657;28;20157;-82
2023/06/15 07:33:18;;;;;;;13.35;10.70;;;;;;;-141.97;49.80;47505.63;5017397;28;20261;-82
2023/06/15 07:35:43;;;;;;;12.00;10.70;;;;;;;-141.97;48.81;47726.66;5034025;28;20170;-81
2023/06/15 07:38:09;;;;;;;12.77;10.18;;;;;;;-141.97;48.60;47521.00;5033028;28;20195;-82
2023/06/15 07:40:34;;;;;;;15.20;11.00;;;;;;;-141.97;48.03;47509.47;5033349;28;20250;-82
2023/06/15 07:43:00;;;;;;;13.18;10.52;;;;;;;-141.97;47.04;47532.53;5032733;28;20292;-81
2023/06/15 07:45:25;;;;;;;12.63;11.18;;;;;;;-141.97;46.85;47478.72;5032986;28;20227;-81
2023/06/15 07:47:51;;;;;;;16.02;11.13;;;;;;;-141.97;48.72;47455.66;5031948;28;20658;-81
2023/06/15 07:50:16;;;;;;;12.80;10.77;;;;;;;-141.97;47.75;47505.63;5032963;28;20172;-81
2023/06/15 07:52:41;;;;;;;12.10;10.57;;;;;;;-141.97;48.87;47346.09;5033008;28;20159;-81
2023/06/15 07:55:07;;;;;;;14.90;10.30;;;;;;;-141.97;48.59;47515.22;5023699;28;20170;-82
2023/06/15 07:57:34;;;;;;;13.90;10.45;;;;;;;-141.97;47.01;47482.56;5013215;28;20542;-81
2023/06/15 08:00:04;;;;;;;14.27;11.05;;;;;;;-141.97;46.04;47474.88;5013206;28;20174;-80
2023/06/15 08:02:30;;;;;;;13.13;10.38;;;;;;;-141.97;45.53;47326.88;5012711;28;20192;-79
2023/06/15 08:04:55;;;;;;;14.13;10.13;;;;;;;-141.97;45.45;47484.47;5030669;28;20189;-81
2023/06/15 08:07:20;;;;;;;11.00;9.80;;;;;;;-141.97;44.10;47492.16;5032761;28;20189;-82
2023/06/15 08:09:46;;;;;;;11.00;9.77;;;;;;;-141.97;44.42;47430.66;5032878;28;20249;-81
2023/06/15 08:12:11;;;;;;;13.02;10.38;;;;;;;-141.97;45.45;47484.47;5031451;28;20196;-80
2023/06/15 08:14:37;;;;;;;14.07;10.98;;;;;;;-141.97;44.92;47449.88;5031402;28;20177;-81
2023/06/15 08:17:02;;;;;;;14.50;9.90;;;;;;;-141.97;44.56;47476.78;5033598;28;20166;-81
2023/06/15 08:19:28;;;;;;;10.95;9.35;;;;;;;-141.97;44.61;47451.81;5014937;28;20264;-82
2023/06/15 08:21:53;;;;;;;11.18;9.02;;;;;;;-141.97;43.79;47492.16;5013355;28;20194;-81
2023/06/15 08:24:18;;;;;;;12.65;9.15;;;;;;;-141.97;43.51;47421.06;5027133;28;20216;-81
2023/06/15 08:26:44;;;;;;;11.43;8.93;;;;;;;-141.97;43.85;47442.19;5032031;28;20173;-79
2023/06/15 08:29:10;;;;;;;14.70;9.68;;;;;;;-141.97;43.81;47453.72;5022986;28;20230;-81
2023/06/15 08:31:36;;;;;;;13.07;9.93;;;;;;;-141.97;43.98;47434.50;5032009;28;20246;-81
2023/06/15 08:34:01;;;;;;;11.68;10.13;;;;;;;-141.97;44.55;47630.56;5032499;28;20176;-82
2023/06/15 08:36:28;;;;;;;16.95;10.23;;;;;;;-141.97;44.51;47494.09;5032532;28;20166;-82
2023/06/15 08:38:53;;;;;;;16.63;10.10;;;;;;;-141.97;44.36;47474.88;5032812;28;20165;-80
2023/06/15 08:41:22;;;;;;;18.00;10.25;;;;;;;-141.97;44.63;47357.63;5031539;28;20194;-81
2023/06/15 08:43:52;;;;;;;11.55;10.20;;;;;;;-141.97;45.17;47355.72;5031232;28;20261;-81
2023/06/15 08:46:18;;;;;;;13.55;10.45;;;;;;;-141.97;45.16;47478.72;5032185;28;20166;-81
2023/06/15 08:48:46;;;;;;;18.02;9.73;;;;;;;-141.97;45.51;47476.78;5032205;28;20217;-81
2023/06/15 08:51:12;;;;;;;13.88;9.80;;;;;;;-141.97;44.96;47488.31;5031852;28;20252;-81
2023/06/15 08:53:42;;;;;;;10.70;9.35;;;;;;;-141.97;44.72;47449.88;5031111;28;20220;-80
2023/06/15 08:56:13;;;;;;;24.75;10.15;;;;;;;-141.97;44.02;47326.88;5031647;28;20169;-81
2023/06/15 08:58:40;;;;;;;69.50;12.13;;;;;;;-141.97;43.59;47303.81;5031381;28;20203;-83
2023/06/15 09:01:09;;;;;;;61.83;11.15;;;;;;;-141.97;43.71;47478.72;5032557;28;20172;-80
2023/06/15 09:03:34;;;;;;;12.15;8.98;;;;;;;-141.97;42.71;47453.72;5033281;28;20181;-80
2023/06/15 09:06:00;;;;;;;9.55;8.65;;;;;;;-141.97;43.19;47465.25;5032026;28;20228;-81
2023/06/15 09:08:26;;;;;;;10.10;9.05;;;;;;;-141.97;44.16;47472.94;5031918;28;20221;-81
2023/06/15 09:11:05;;;;;;;11.80;10.10;;;;;;;-141.97;44.04;47463.34;5031937;28;20161;-80
2023/06/15 09:13:32;;;;;;;12.07;9.45;;;;;;;-141.97;44.74;47482.56;5031414;28;20627;-80
2023/06/15 09:15:59;;;;;;;10.07;8.90;;;;;;;-141.97;44.45;47496.00;5030033;28;20178;-81
2023/06/15 09:18:25;;;;;;;11.65;9.05;;;;;;;-141.97;43.84;47398.00;5030061;28;20208;-80
2023/06/15 09:20:50;;;;;;;10.85;9.18;;;;;;;-141.97;43.29;47355.72;5031192;28;20391;-81
2023/06/15 09:23:16;;;;;;;14.23;9.43;;;;;;;-141.97;42.98;47442.19;5030657;28;20193;-81
2023/06/15 09:25:51;;;;;;;10.25;9.25;;;;;;;-141.97;42.88;47269.22;5030622;28;20187;-80
2023/06/15 09:28:21;;;;;;;10.85;9.60;;;;;;;-141.97;42.82;47703.59;5030217;28;20183;-79
2023/06/15 09:30:55;;;;;;;11.90;9.40;;;;;;;-141.97;43.16;47428.75;5021031;28;20237;-81
2023/06/15 09:33:22;;;;;;;10.25;9.13;;;;;;;-141.97;42.97;47432.59;5030738;28;20267;-81
2023/06/15 09:35:58;;;;;;;11.60;9.70;;;;;;;-141.97;43.81;47453.72;5029837;28;20165;-80
2023/06/15 09:38:40;;;;;;;10.93;9.25;;;;;;;-141.97;43.44;47453.72;5029772;28;20195;-82
2023/06/15 09:41:06;;;;;;;14.38;10.30;;;;;;;-141.97;43.56;47461.41;5030144;28;20183;-81
2023/06/15 09:43:38;;;;;;;12.18;9.50;;;;;;;-141.97;43.65;47474.88;5029587;28;20629;-80
2023/06/15 09:46:09;;;;;;;12.55;10.13;;;;;;;-141.97;44.48;47457.56;5031058;28;20173;-81
2023/06/15 09:48:39;;;;;;;14.32;10.43;;;;;;;-141.97;44.89;47440.28;5030915;28;20518;-81
2023/06/15 09:51:04;;;;;;;11.63;10.35;;;;;;;-141.97;44.44;47432.59;5031118;28;20208;-79
2023/06/15 09:53:30;;;;;;;13.55;10.00;;;;;;;-141.97;44.57;47446.03;5030793;28;20181;-81
2023/06/15 09:55:57;;;;;;;11.57;10.23;;;;;;;-141.97;44.81;47369.16;5031079;28;20646;-81
2023/06/15 09:58:23;;;;;;;14.65;10.93;;;;;;;-141.97;44.19;47344.19;5030965;28;20199;-82
2023/06/15 10:00:49;;;;;;;13.63;10.48;;;;;;;-141.97;44.90;47472.94;5030382;28;20248;-81
2023/06/15 10:03:19;;;;;;;14.18;11.65;;;;;;;-141.97;45.75;47707.44;5031444;28;20190;-81
2023/06/15 10:05:49;;;;;;;14.52;11.25;;;;;;;-141.97;45.69;47497.94;5030943;28;20241;-81
2023/06/15 10:08:18;;;;;;;12.40;10.93;;;;;;;-141.97;45.30;47459.50;5030747;28;20761;-82
2023/06/15 10:10:45;;;;;;;14.38;11.45;;;;;;;-141.97;45.78;47469.09;5032105;28;20181;-81
2023/06/15 10:13:15;;;;;;;14.73;10.80;;;;;;;-141.97;45.90;47403.75;5034617;28;20166;-82
2023/06/15 10:15:45;;;;;;;12.45;10.43;;;;;;;-141.97;45.79;47469.09;5034405;28;20653;-81
2023/06/15 10:18:13;;;;;;;13.27;10.52;;;;;;;-141.97;45.71;47476.78;5029781;28;20575;-84
2023/06/15 10:20:40;;;;;;;15.68;11.00;;;;;;;-141.97;45.07;47296.13;5023549;28;20237;-81
2023/06/15 10:23:10;;;;;;;13.85;11.10;;;;;;;-141.97;47.00;47678.63;5034003;28;20232;-80
2023/06/15 10:25:36;;;;;;;14.20;10.90;;;;;;;-141.97;47.93;47471.03;5034400;28;20169;-81
2023/06/15 10:28:12;;;;;;;15.63;10.95;;;;;;;-141.97;50.03;47715.13;5034775;28;20653;-80
2023/06/15 10:30:40;;;;;;;17.52;11.90;;;;;;;-141.97;51.89;47469.09;5024311;28;20279;-81
2023/06/15 10:33:35;;;;;;;16.20;12.90;;;;;;;-141.97;52.89;47534.44;5033854;28;20162;-81
2023/06/15 10:36:12;;;;;;;18.00;12.98;;;;;;;-141.97;55.23;47534.44;5033227;28;20161;-81
2023/06/15 10:38:59;;;;;;;15.82;12.85;;;;;;;-141.97;56.01;47534.44;5034199;28;20164;-82
2023/06/15 10:41:26;;;;;;;15.52;12.95;;;;;;;-141.97;56.85;47522.91;5035074;28;20234;-81
2023/06/15 10:44:02;;;;;;;16.95;12.75;;;;;;;-141.97;57.22;47563.28;5033796;28;20168;-82
2023/06/15 10:46:37;;;;;;;15.43;12.77;;;;;;;-141.97;57.58;47572.91;5034564;28;20165;-81
2023/06/15 10:49:04;;;;;;;15.30;12.98;;;;;;;-141.97;58.59;47438.34;5035011;28;20172;-81
2023/06/15 10:51:38;;;;;;;16.23;12.10;;;;;;;-141.97;58.81;47755.50;5034828;28;20246;-81
2023/06/15 10:54:05;;;;;;;19.02;11.25;;;;;;;-141.97;59.46;47501.78;5034442;28;20207;-81
2023/06/15 10:56:31;;;;;;;19.13;13.20;;;;;;;-141.97;60.67;47488.31;5033809;28;20553;-81
2023/06/15 10:59:00;;;;;;;15.80;12.80;;;;;;;-141.97;62.11;47538.28;5034595;28;20242;-80
2023/06/15 11:01:33;;;;;;;16.25;13.38;;;;;;;-141.97;63.01;47576.75;5034337;28;20192;-80
2023/06/15 11:04:00;;;;;;;20.50;13.97;;;;;;;-141.97;66.07;47574.81;5034372;28;20699;-81
2023/06/15 11:06:35;;;;;;;18.77;15.00;;;;;;;-141.97;68.16;47572.91;5033820;28;20484;-80